KUKI

Ukiah Municipal Airport

Ukiah, California, USA
KUKI 162338Z 1700/1724 16011G20KT 2SM -RA VCTS SCT015CB BKN025 OVC050 TEMPO 1700/1702 16015G26KT 3SM -SHRA BR SCT025 OVC035 FM170200 16012G20KT 4SM -TSRA BR SCT015CB OVC025 FM170600 17010G18KT 6SM -SHRA BR SCT015 BKN025 OVC035 FM171500 16010KT 1SM RA BR OVC015 FM172000 27012KT 6SM -SHRA SCT015 BKN035 OVC050
Issued Valid From Valid To
Jan-16 @ 23:38 UTC
(5 hours ago)
Jan-17 @ 00:00 UTC
(5 hours ago)
Jan-18 @ 00:00 UTC
(in 19 hours)
Expired Click to View Jan-17 @ 00:00 to Jan-17 @ 02:00
KUKI 162338Z 1700/1724 16011G20KT 2SM -RA VCTS SCT015CB BKN025 OVC050
Wind Visibility Clouds Conditions
160° at 11 knots
 Gusting to 20 knots
2 miles
  • Scattered at 1,500' AGL
  • Broken at 2,500' AGL
  • Overcast at 5,000' AGL
  • Light Rain
  • Area Thunderstorm
Expired Click to View Jan-17 @ 00:00 to Jan-17 @ 02:00
TEMPO 1700/1702 16015G26KT 3SM -SHRA BR SCT025 OVC035
Wind Visibility Clouds Conditions
160° at 15 knots
 Gusting to 26 knots
3 miles
  • Scattered at 2,500' AGL
  • Overcast at 3,500' AGL
  • Light Rain
  • Mist
From Jan-17 @ 02:00 to Jan-17 @ 06:00
FM170200 16012G20KT 4SM -TSRA BR SCT015CB OVC025
Wind Visibility Clouds Conditions
160° at 12 knots
 Gusting to 20 knots
4 miles
  • Scattered at 1,500' AGL
  • Overcast at 2,500' AGL
  • Light Thunderstorm
  • Light Rain
  • Mist
From Jan-17 @ 06:00 to Jan-17 @ 15:00
FM170600 17010G18KT 6SM -SHRA BR SCT015 BKN025 OVC035
Wind Visibility Clouds Conditions
170° at 10 knots
 Gusting to 18 knots
6 miles
  • Scattered at 1,500' AGL
  • Broken at 2,500' AGL
  • Overcast at 3,500' AGL
  • Light Rain
  • Mist
From Jan-17 @ 15:00 to Jan-17 @ 20:00
FM171500 16010KT 1SM RA BR OVC015
Wind Visibility Clouds Conditions
160° at 10 knots 1 miles
  • Overcast at 1,500' AGL
  • Rain
  • Mist
From Jan-17 @ 20:00 to Jan-18 @ 00:00
FM172000 27012KT 6SM -SHRA SCT015 BKN035 OVC050
Wind Visibility Clouds Conditions
270° at 12 knots 6 miles
  • Scattered at 1,500' AGL
  • Broken at 3,500' AGL
  • Overcast at 5,000' AGL
  • Light Rain
KUKI 162338Z 1700/1724 16011G20KT 2SM -RA VCTS SCT015CB BKN025 OVC050 TEMPO 1700/1702 16015G26KT 3SM -SHRA BR SCT025 OVC035 FM170200 16012G20KT 4SM -TSRA BR SCT015CB OVC025 FM170600 17010G18KT 6SM -SHRA BR SCT015 BKN025 OVC035 FM171500 16010KT 1SM RA BR OVC015 FM172000 27012KT 6SM -SHRA SCT015 BKN035 OVC050
Issued Jan-16 @ 23:38 UTC
(5 hours ago)
Valid From Jan-17 @ 00:00 UTC
(5 hours ago)
Valid To Jan-18 @ 00:00 UTC
(in 19 hours)
Jan-17 @ 00:00 - Jan-17 @ 02:00
Wind Visibility
160° at 11 knots
 Gusting to 20 knots
2 miles
Clouds
  • Scattered at 1,500' AGL
  • Broken at 2,500' AGL
  • Overcast at 5,000' AGL
Conditions
  • Light Rain
  • Area Thunderstorm
Jan-17 @ 00:00 - Jan-17 @ 02:00
Wind Visibility
160° at 15 knots
 Gusting to 26 knots
3 miles
Clouds
  • Scattered at 2,500' AGL
  • Overcast at 3,500' AGL
Conditions
  • Light Rain
  • Mist
From Jan-17 @ 02:00 - Jan-17 @ 06:00
Wind Visibility
160° at 12 knots
 Gusting to 20 knots
4 miles
Clouds
  • Scattered at 1,500' AGL
  • Overcast at 2,500' AGL
Conditions
  • Light Thunderstorm
  • Light Rain
  • Mist
From Jan-17 @ 06:00 - Jan-17 @ 15:00
Wind Visibility
170° at 10 knots
 Gusting to 18 knots
6 miles
Clouds
  • Scattered at 1,500' AGL
  • Broken at 2,500' AGL
  • Overcast at 3,500' AGL
Conditions
  • Light Rain
  • Mist
From Jan-17 @ 15:00 - Jan-17 @ 20:00
Wind Visibility
160° at 10 knots 1 miles
Clouds
  • Overcast at 1,500' AGL
Conditions
  • Rain
  • Mist
From Jan-17 @ 20:00 - Jan-18 @ 00:00
Wind Visibility
270° at 12 knots 6 miles
Clouds
  • Scattered at 1,500' AGL
  • Broken at 3,500' AGL
  • Overcast at 5,000' AGL
Conditions
  • Light Rain